首页
METAR-TAF:

METAR-TAF

机场 :

达拉斯/沃思堡国际机场

達拉斯 / 沃思堡, 得克萨斯州, 美国

纬度: 32-53-49N, 经度: 097-01-19W, 海拔: 183米

当前天气观测

该预报发布于50分钟前的18:53 UTC
风速7节,风向
温度 18°C
湿度 39%
气压 1016 hPa
能見度: 16.1公里
少量云层高于25000英尺

METAR: KDFW 171853Z 35007KT 10SM FEW250 18/04 A3000 RMK AO2 SLP154 T01830044 $

时间: 13:43 (19:43 UTC)

预报

该预报发布于2小时和11分钟前的17:32 UTC
预报有效从17日的 18点(UTC)到 18日的 24点(UTC)
风速5节,风向西
能見度: 10公里
少量云层高于25000英尺
从 17日的 1900点(UTC)
风速8节,风向西北
能見度: 10公里
天空无云
从 18日的 1100点(UTC)
风速5节,风向西
能見度: 10公里
少量云层高于20000英尺

TAF: KDFW 171732Z 1718/1824 26005KT P6SM FEW250 FM171900 32008KT P6SM SKC FM181100 27005KT P6SM FEW200

超过4000个机场的气象观测和天气预报(METAR&TAF报告)。

可查询的气象台以黄色和红色小点在地图上表示。

将鼠标移到小点上方,可查看气象台名称。

然后点击查看天气观测和预报。

如需切换地图:点击带黑十字的绿色按钮放大地图;点击带横线的绿色按钮缩小地图;或者点击绿色箭头查看邻近地区的地图。


METAR-TAF: